createdAt,value
2018-09-24T00:00:44.087Z,2.40
2018-09-24T00:03:12.650Z,2.47
2018-09-24T00:05:41.185Z,2.40
2018-09-24T00:08:09.782Z,2.97
2018-09-24T00:10:38.365Z,2.50
2018-09-24T00:13:06.938Z,2.50
2018-09-24T00:15:35.510Z,2.47
2018-09-24T00:18:04.065Z,2.60
2018-09-24T00:20:32.656Z,2.57
2018-09-24T00:23:01.222Z,2.40
2018-09-24T00:25:29.768Z,2.47
2018-09-24T00:27:58.296Z,2.60
2018-09-24T00:30:26.889Z,2.40
2018-09-24T00:32:55.425Z,2.30
2018-09-24T00:35:24.010Z,2.60
2018-09-24T00:37:52.559Z,2.40
2018-09-24T00:40:21.118Z,2.63
2018-09-24T00:42:49.639Z,2.50
2018-09-24T00:45:18.204Z,2.40
2018-09-24T00:47:46.756Z,2.60
2018-09-24T00:50:15.355Z,2.33
2018-09-24T00:52:43.888Z,2.40
2018-09-24T00:55:12.439Z,2.23
2018-09-24T00:57:40.970Z,2.50
2018-09-24T01:00:09.559Z,2.50
2018-09-24T01:02:38.175Z,2.57
2018-09-24T01:05:06.891Z,2.40
2018-09-24T01:07:35.459Z,2.30
2018-09-24T01:10:04.062Z,2.50
2018-09-24T01:12:32.640Z,2.33
2018-09-24T01:15:01.183Z,2.60
2018-09-24T01:17:29.708Z,2.53
2018-09-24T01:19:58.270Z,2.30
2018-09-24T01:22:26.839Z,2.13
2018-09-24T01:24:55.402Z,2.50
2018-09-24T01:27:23.985Z,2.57
2018-09-24T01:29:52.580Z,2.67
2018-09-24T01:32:21.095Z,2.73
2018-09-24T01:34:49.764Z,2.57
2018-09-24T01:37:18.287Z,2.90
2018-09-24T01:39:47.611Z,2.87
2018-09-24T01:42:17.135Z,2.40
2018-09-24T01:44:45.723Z,2.60
2018-09-24T01:47:14.244Z,2.53
2018-09-24T01:49:42.796Z,2.20
2018-09-24T01:52:11.405Z,2.50
2018-09-24T01:54:40.046Z,2.20
2018-09-24T01:57:14.200Z,2.60
2018-09-24T01:59:47.910Z,2.23
2018-09-24T02:02:16.784Z,2.30
2018-09-24T02:04:45.376Z,2.40
2018-09-24T02:07:13.924Z,2.10
2018-09-24T02:09:42.479Z,2.60
2018-09-24T02:12:11.011Z,2.60
2018-09-24T02:14:39.578Z,2.60
2018-09-24T02:17:14.391Z,2.37
2018-09-24T02:19:43.411Z,2.80
2018-09-24T02:22:12.335Z,2.50
2018-09-24T02:24:40.912Z,2.40
2018-09-24T02:27:10.672Z,2.57
2018-09-24T02:29:39.750Z,2.70
2018-09-24T02:32:08.345Z,2.50
2018-09-24T02:34:36.974Z,2.40
2018-09-24T02:37:06.043Z,2.53
2018-09-24T02:39:34.593Z,2.50
2018-09-24T02:42:03.246Z,2.90
2018-09-24T02:44:31.798Z,2.60
2018-09-24T02:47:00.364Z,2.70
2018-09-24T02:49:28.895Z,2.60
2018-09-24T02:52:01.953Z,2.57
2018-09-24T02:54:31.073Z,2.57
2018-09-24T02:56:59.656Z,2.47
2018-09-24T02:59:28.209Z,2.37
2018-09-24T03:01:56.822Z,2.60
2018-09-24T03:04:25.467Z,2.70
2018-09-24T03:06:54.048Z,2.80
2018-09-24T03:09:22.602Z,2.70
2018-09-24T03:11:51.161Z,2.90
2018-09-24T03:14:24.850Z,3.00
2018-09-24T03:16:53.948Z,3.00
2018-09-24T03:19:22.535Z,2.80
2018-09-24T03:21:51.178Z,2.90
2018-09-24T03:24:19.717Z,2.90
2018-09-24T03:26:48.257Z,3.33
2018-09-24T03:29:19.668Z,3.27
2018-09-24T03:31:48.266Z,3.20
2018-09-24T03:34:17.995Z,4.20
2018-09-24T03:36:47.308Z,3.37
2018-09-24T03:39:15.821Z,3.37
2018-09-24T03:41:44.835Z,3.20
2018-09-24T03:44:13.383Z,3.10
2018-09-24T03:46:42.297Z,3.40
2018-09-24T03:49:11.267Z,3.33
2018-09-24T03:51:40.135Z,3.57
2018-09-24T03:54:09.619Z,3.50
2018-09-24T03:56:38.320Z,3.70
2018-09-24T03:59:07.066Z,4.13
2018-09-24T04:01:35.548Z,3.70
2018-09-24T04:04:09.568Z,3.87
2018-09-24T04:06:43.475Z,3.43
2018-09-24T04:09:17.460Z,3.43
2018-09-24T04:11:51.152Z,3.63
2018-09-24T04:14:25.092Z,3.13
2018-09-24T04:16:59.037Z,3.13
2018-09-24T04:19:32.956Z,3.13
2018-09-24T04:22:06.864Z,3.73
2018-09-24T04:24:40.877Z,3.43
2018-09-24T04:27:14.832Z,3.30
2018-09-24T04:29:48.509Z,3.23
2018-09-24T04:32:22.451Z,3.50
2018-09-24T04:34:56.291Z,3.40
2018-09-24T04:37:30.110Z,3.60
2018-09-24T04:40:04.095Z,3.40
2018-09-24T04:42:38.136Z,4.03
2018-09-24T04:45:12.094Z,3.80
2018-09-24T04:47:46.126Z,4.07
2018-09-24T04:50:20.955Z,3.90
2018-09-24T04:52:54.778Z,4.10
2018-09-24T04:55:28.713Z,4.00
2018-09-24T04:58:02.692Z,4.13
2018-09-24T05:00:36.506Z,4.17
2018-09-24T05:03:10.406Z,3.97
2018-09-24T05:05:44.126Z,4.10
2018-09-24T05:08:18.084Z,4.50
2018-09-24T05:10:52.029Z,4.60
2018-09-24T05:13:25.910Z,4.37
2018-09-24T05:15:59.708Z,4.50
2018-09-24T05:18:33.460Z,4.30
2018-09-24T05:21:07.394Z,4.50
2018-09-24T05:23:41.259Z,4.50
2018-09-24T05:26:15.229Z,4.23
2018-09-24T05:28:49.275Z,4.20
2018-09-24T05:31:23.245Z,5.30
2018-09-24T05:33:57.036Z,4.77
2018-09-24T05:36:31.937Z,7.33
2018-09-24T05:39:05.764Z,5.37
2018-09-24T05:41:39.610Z,5.30
2018-09-24T05:44:13.795Z,5.30
2018-09-24T05:46:47.576Z,5.40
2018-09-24T05:49:21.445Z,5.63
2018-09-24T05:52:02.232Z,5.80
2018-09-24T05:54:36.007Z,5.60
2018-09-24T05:57:09.956Z,5.50
2018-09-24T05:59:43.966Z,5.47
2018-09-24T06:02:18.036Z,5.77
2018-09-24T06:04:51.748Z,5.40
2018-09-24T06:07:25.736Z,5.10
2018-09-24T06:09:59.417Z,5.50
2018-09-24T06:12:33.248Z,4.93
2018-09-24T06:15:07.290Z,4.57
2018-09-24T06:17:41.223Z,5.27
2018-09-24T06:20:15.126Z,5.00
2018-09-24T06:22:49.136Z,4.47
2018-09-24T06:25:23.193Z,4.70
2018-09-24T06:27:57.143Z,4.20
2018-09-24T06:30:31.334Z,4.53
2018-09-24T06:33:05.222Z,4.50
2018-09-24T06:35:39.238Z,5.00
2018-09-24T06:38:13.288Z,4.73
2018-09-24T06:40:47.239Z,4.27
2018-09-24T06:43:21.200Z,4.43
2018-09-24T06:45:55.164Z,4.43
2018-09-24T06:48:29.148Z,4.53
2018-09-24T06:51:03.200Z,4.77
2018-09-24T06:53:37.178Z,4.73
2018-09-24T06:56:11.159Z,4.50
2018-09-24T06:58:44.899Z,4.43
2018-09-24T07:01:18.686Z,4.43
2018-09-24T07:03:52.524Z,4.27
2018-09-24T07:06:26.570Z,4.00
2018-09-24T07:09:00.553Z,4.20
2018-09-24T07:11:34.416Z,3.47
2018-09-24T07:14:08.285Z,3.73
2018-09-24T07:16:42.302Z,3.40
2018-09-24T07:19:16.133Z,3.63
2018-09-24T07:21:50.099Z,3.43
2018-09-24T07:24:24.003Z,3.30
2018-09-24T07:26:58.023Z,3.50
2018-09-24T07:29:31.854Z,3.83
2018-09-24T07:32:05.831Z,4.00
2018-09-24T07:34:39.785Z,3.80
2018-09-24T07:37:13.825Z,3.60
2018-09-24T07:39:47.756Z,3.70
2018-09-24T07:42:21.739Z,4.40
2018-09-24T07:44:55.514Z,4.10
2018-09-24T07:47:29.371Z,3.90
2018-09-24T07:50:03.297Z,4.30
2018-09-24T07:52:37.192Z,4.60
2018-09-24T07:55:10.926Z,4.30
2018-09-24T07:57:44.857Z,4.40
2018-09-24T08:00:18.649Z,4.27
2018-09-24T08:02:52.616Z,4.07
2018-09-24T08:05:26.630Z,3.93
2018-09-24T08:08:00.516Z,3.70
2018-09-24T08:10:34.288Z,3.60
2018-09-24T08:13:08.193Z,3.50
2018-09-24T08:15:42.012Z,3.50
2018-09-24T08:18:15.973Z,3.60
2018-09-24T08:20:49.836Z,3.30
2018-09-24T08:23:23.861Z,3.23
2018-09-24T08:25:57.815Z,3.20
2018-09-24T08:28:31.738Z,3.20
2018-09-24T08:31:05.629Z,4.10
2018-09-24T08:33:39.490Z,5.03
2018-09-24T08:36:13.274Z,4.10
2018-09-24T08:38:47.169Z,3.20
2018-09-24T08:41:21.056Z,2.87
2018-09-24T08:43:54.901Z,2.87
2018-09-24T08:46:28.739Z,2.70
2018-09-24T08:49:02.720Z,2.90
2018-09-24T08:51:36.585Z,4.47
2018-09-24T08:54:10.372Z,3.10
2018-09-24T08:56:44.273Z,2.77
2018-09-24T08:59:18.271Z,2.80
2018-09-24T09:01:52.105Z,2.87
2018-09-24T09:04:25.854Z,2.90
2018-09-24T09:06:59.903Z,2.80
2018-09-24T09:09:33.801Z,2.40
2018-09-24T09:12:07.773Z,2.00
2018-09-24T09:14:41.591Z,2.60
2018-09-24T09:17:15.539Z,2.00
2018-09-24T09:19:49.586Z,2.00
2018-09-24T09:22:23.426Z,1.90
2018-09-24T09:24:57.282Z,1.87
2018-09-24T09:27:31.195Z,2.00
2018-09-24T09:30:05.095Z,1.60
2018-09-24T09:32:39.075Z,1.70
2018-09-24T09:35:13.102Z,1.87
2018-09-24T09:37:46.888Z,2.20
2018-09-24T09:40:20.932Z,2.00
2018-09-24T09:42:54.772Z,2.20
2018-09-24T09:45:28.652Z,1.60
2018-09-24T09:48:02.489Z,1.70
2018-09-24T09:50:36.458Z,1.80
2018-09-24T09:53:10.578Z,2.03
2018-09-24T09:55:44.564Z,1.70
2018-09-24T09:58:18.349Z,1.33
2018-09-24T10:00:52.262Z,1.57
2018-09-24T10:03:26.087Z,1.80
2018-09-24T10:06:00.099Z,1.83
2018-09-24T10:08:33.911Z,1.60
2018-09-24T10:11:07.712Z,1.63
2018-09-24T10:13:41.737Z,1.77
2018-09-24T10:16:15.659Z,1.60
2018-09-24T10:18:49.630Z,1.70
2018-09-24T10:21:23.478Z,1.60
2018-09-24T10:23:57.457Z,1.63
2018-09-24T10:26:31.488Z,1.40
2018-09-24T10:29:05.511Z,1.50
2018-09-24T10:31:39.330Z,1.53
2018-09-24T10:34:13.044Z,1.50
2018-09-24T10:36:46.916Z,1.40
2018-09-24T10:39:21.547Z,1.70
2018-09-24T10:41:55.193Z,1.40
2018-09-24T10:44:29.557Z,1.50
2018-09-24T10:47:03.378Z,1.40
2018-09-24T10:49:37.264Z,1.50
2018-09-24T10:52:11.154Z,1.40
2018-09-24T10:54:45.089Z,1.50
2018-09-24T10:57:19.002Z,1.50
2018-09-24T10:59:52.890Z,1.40
2018-09-24T11:02:26.704Z,1.67
2018-09-24T11:05:00.648Z,1.37
2018-09-24T11:07:34.661Z,1.33
2018-09-24T11:10:08.718Z,1.50
2018-09-24T11:12:42.746Z,1.40
2018-09-24T11:15:16.674Z,1.40
2018-09-24T11:17:50.770Z,1.23
2018-09-24T11:20:24.364Z,1.40
2018-09-24T11:22:58.300Z,1.30
2018-09-24T11:25:32.246Z,1.47
2018-09-24T11:28:05.942Z,1.70
2018-09-24T11:30:39.741Z,1.40
2018-09-24T11:33:13.440Z,1.70
2018-09-24T11:35:47.371Z,1.50
2018-09-24T11:38:21.342Z,1.30
2018-09-24T11:40:55.203Z,1.40
2018-09-24T11:43:29.177Z,1.30
2018-09-24T11:46:03.247Z,1.40
2018-09-24T11:48:37.152Z,1.40
2018-09-24T11:51:11.008Z,1.50
2018-09-24T11:53:44.871Z,1.30
2018-09-24T11:56:18.778Z,1.42
2018-09-24T11:58:52.686Z,1.40
2018-09-24T12:01:26.506Z,1.20
2018-09-24T12:04:00.359Z,1.27
2018-09-24T12:06:34.289Z,1.27
2018-09-24T12:09:08.237Z,1.12
2018-09-24T12:11:42.104Z,1.37
2018-09-24T12:14:16.062Z,1.40
2018-09-24T12:16:50.049Z,1.12
2018-09-24T12:19:23.862Z,1.30
2018-09-24T12:21:57.635Z,1.57
2018-09-24T12:24:31.689Z,1.20
2018-09-24T12:27:05.692Z,1.20
2018-09-24T12:29:39.420Z,1.42
2018-09-24T12:32:13.401Z,1.17
2018-09-24T12:34:47.260Z,1.62
2018-09-24T12:37:21.130Z,1.50
2018-09-24T12:39:54.911Z,1.20
2018-09-24T12:42:28.749Z,1.30
2018-09-24T12:45:02.519Z,1.15
2018-09-24T12:47:36.334Z,1.45
2018-09-24T12:50:10.232Z,1.90
2018-09-24T12:52:43.974Z,1.47
2018-09-24T12:55:17.951Z,1.40
2018-09-24T12:57:51.954Z,1.47
2018-09-24T13:00:25.889Z,1.10
2018-09-24T13:02:59.856Z,1.20
2018-09-24T13:05:33.788Z,1.22
2018-09-24T13:08:07.577Z,1.60
2018-09-24T13:10:41.368Z,1.50
2018-09-24T13:13:15.240Z,1.37
2018-09-24T13:15:49.045Z,1.20
2018-09-24T13:18:23.036Z,1.10
2018-09-24T13:20:57.027Z,1.30
2018-09-24T13:23:31.019Z,1.22
2018-09-24T13:26:05.054Z,1.20
2018-09-24T13:28:38.959Z,1.42
2018-09-24T13:31:12.843Z,1.20
2018-09-24T13:33:46.725Z,1.40
2018-09-24T13:36:20.532Z,1.40
2018-09-24T13:38:54.721Z,1.55
2018-09-24T13:41:28.751Z,1.40
2018-09-24T13:44:02.777Z,1.35
2018-09-24T13:46:36.600Z,1.40
2018-09-24T13:49:10.435Z,1.50
2018-09-24T13:51:44.209Z,1.30
2018-09-24T13:54:18.290Z,1.30
2018-09-24T13:56:52.294Z,1.30
2018-09-24T13:59:26.110Z,1.40
2018-09-24T14:02:00.089Z,1.40
2018-09-24T14:04:34.149Z,1.30
2018-09-24T14:07:08.115Z,1.40
2018-09-24T14:09:42.200Z,1.40
2018-09-24T14:12:16.156Z,1.40
2018-09-24T14:14:50.024Z,1.40
2018-09-24T14:17:23.942Z,1.20
2018-09-24T14:19:57.977Z,1.23
2018-09-24T14:22:31.999Z,1.50
2018-09-24T14:25:06.071Z,1.20
2018-09-24T14:27:39.906Z,1.30
2018-09-24T14:30:13.831Z,1.30
2018-09-24T14:32:47.758Z,1.30
2018-09-24T14:35:21.529Z,1.25
2018-09-24T14:37:55.466Z,1.30
2018-09-24T14:40:29.329Z,1.60
2018-09-24T14:43:03.225Z,1.42
2018-09-24T14:45:37.097Z,1.35
2018-09-24T14:48:10.971Z,1.10
2018-09-24T14:50:44.926Z,2.37
2018-09-24T14:53:18.903Z,2.40
2018-09-24T14:55:52.752Z,1.20
2018-09-24T14:58:26.759Z,1.70
2018-09-24T15:01:00.726Z,1.40
2018-09-24T15:03:34.687Z,1.47
2018-09-24T15:06:08.661Z,1.42
2018-09-24T15:08:42.497Z,1.20
2018-09-24T15:11:16.360Z,1.35
2018-09-24T15:13:50.387Z,1.17
2018-09-24T15:16:24.224Z,1.37
2018-09-24T15:18:58.056Z,1.47
2018-09-24T15:21:31.900Z,1.40
2018-09-24T15:24:05.872Z,1.40
2018-09-24T15:26:39.828Z,1.40
2018-09-24T15:29:13.723Z,1.20
2018-09-24T15:31:47.422Z,1.30
2018-09-24T15:34:21.320Z,1.20
2018-09-24T15:36:55.451Z,1.27
2018-09-24T15:39:29.382Z,1.30
2018-09-24T15:42:03.481Z,1.40
2018-09-24T15:44:37.450Z,1.40
2018-09-24T15:47:11.555Z,1.22
2018-09-24T15:49:45.442Z,1.12
2018-09-24T15:52:19.111Z,1.72
2018-09-24T15:54:53.044Z,1.25
2018-09-24T15:57:26.853Z,1.20
2018-09-24T16:00:00.884Z,1.25
2018-09-24T16:02:34.571Z,1.40
2018-09-24T16:05:08.650Z,1.22
2018-09-24T16:07:43.225Z,1.20
2018-09-24T16:10:17.240Z,1.27
2018-09-24T16:12:51.132Z,1.20
2018-09-24T16:15:25.049Z,1.30
2018-09-24T16:17:59.035Z,1.35
2018-09-24T16:20:32.883Z,1.50
2018-09-24T16:23:06.739Z,1.47
2018-09-24T16:25:40.607Z,1.40
2018-09-24T16:28:14.568Z,1.12
2018-09-24T16:30:48.334Z,1.42
2018-09-24T16:33:22.373Z,1.40
2018-09-24T16:35:56.527Z,16.33
2018-09-24T16:38:30.398Z,4.20
2018-09-24T16:41:04.329Z,4.50
2018-09-24T16:43:38.202Z,1.20
2018-09-24T16:46:12.181Z,1.43
2018-09-24T16:48:45.966Z,1.57
2018-09-24T16:51:19.884Z,1.50
2018-09-24T16:53:53.861Z,2.03
2018-09-24T16:56:27.844Z,1.50
2018-09-24T16:59:01.776Z,1.87
2018-09-24T17:01:35.817Z,1.80
2018-09-24T17:04:09.837Z,1.90
2018-09-24T17:06:43.659Z,1.70
2018-09-24T17:09:17.561Z,2.00
2018-09-24T17:11:51.546Z,1.87
2018-09-24T17:14:25.329Z,2.13
2018-09-24T17:16:59.270Z,2.60
2018-09-24T17:19:33.151Z,2.70
2018-09-24T17:22:06.915Z,2.00
2018-09-24T17:24:40.634Z,1.90
2018-09-24T17:27:14.498Z,1.70
2018-09-24T17:29:48.464Z,1.80
2018-09-24T17:32:22.378Z,1.80
2018-09-24T17:34:56.244Z,1.83
2018-09-24T17:37:30.230Z,1.80
2018-09-24T17:40:04.129Z,2.53
2018-09-24T17:42:37.935Z,2.10
2018-09-24T17:45:12.160Z,2.17
2018-09-24T17:47:46.000Z,1.80
2018-09-24T17:50:20.933Z,1.93
2018-09-24T17:52:54.726Z,2.00
2018-09-24T17:55:28.391Z,2.37
2018-09-24T17:58:02.219Z,2.10
2018-09-24T18:00:36.224Z,2.17
2018-09-24T18:03:10.060Z,2.77
2018-09-24T18:05:43.955Z,3.73
2018-09-24T18:08:17.763Z,3.50
2018-09-24T18:10:51.602Z,2.97
2018-09-24T18:13:25.322Z,3.80
2018-09-24T18:15:59.313Z,5.20
2018-09-24T18:18:32.993Z,4.20
2018-09-24T18:21:06.822Z,5.17
2018-09-24T18:23:40.705Z,5.50
2018-09-24T18:26:14.643Z,8.70
2018-09-24T18:28:48.427Z,8.17
2018-09-24T18:31:22.402Z,6.90
2018-09-24T18:33:56.340Z,6.00
2018-09-24T18:36:30.253Z,5.70
2018-09-24T18:39:04.191Z,6.03
2018-09-24T18:41:38.122Z,3.80
2018-09-24T18:44:12.366Z,2.70
2018-09-24T18:46:46.665Z,5.77
2018-09-24T18:49:20.497Z,8.63
2018-09-24T18:51:54.470Z,4.40
2018-09-24T18:54:28.431Z,2.20
2018-09-24T18:57:02.490Z,1.57
2018-09-24T18:59:36.416Z,1.40
2018-09-24T19:02:10.572Z,1.60
2018-09-24T19:04:44.513Z,1.50
2018-09-24T19:07:18.448Z,2.70
2018-09-24T19:09:52.400Z,1.60
2018-09-24T19:12:26.353Z,1.50
2018-09-24T19:15:00.197Z,1.50
2018-09-24T19:17:35.175Z,3.03
2018-09-24T19:20:09.297Z,5.87
2018-09-24T19:22:43.314Z,5.97
2018-09-24T19:25:17.155Z,4.73
2018-09-24T19:27:51.319Z,2.90
2018-09-24T19:30:25.240Z,2.40
2018-09-24T19:32:59.254Z,2.10
2018-09-24T19:35:33.207Z,2.10
2018-09-24T19:38:06.875Z,2.17
2018-09-24T19:40:41.102Z,2.30
2018-09-24T19:43:15.083Z,2.23
2018-09-24T19:45:48.871Z,1.87
2018-09-24T19:48:23.240Z,2.20
2018-09-24T19:50:57.047Z,2.10
2018-09-24T19:53:30.956Z,2.00
2018-09-24T19:56:04.981Z,2.17
2018-09-24T19:58:38.681Z,2.00
2018-09-24T20:01:12.774Z,2.30
2018-09-24T20:03:46.777Z,2.40
2018-09-24T20:06:20.809Z,2.33
2018-09-24T20:08:54.787Z,2.33
2018-09-24T20:11:28.731Z,2.13
2018-09-24T20:14:02.545Z,2.40
2018-09-24T20:16:36.633Z,2.70
2018-09-24T20:19:10.653Z,2.43
2018-09-24T20:21:45.593Z,2.20
2018-09-24T20:24:19.358Z,2.37
2018-09-24T20:26:53.416Z,2.30
2018-09-24T20:29:27.257Z,2.50
2018-09-24T20:32:01.219Z,2.10
2018-09-24T20:34:35.208Z,2.20
2018-09-24T20:37:10.276Z,2.20
2018-09-24T20:39:44.867Z,2.07
2018-09-24T20:42:18.670Z,2.10
2018-09-24T20:44:52.589Z,2.20
2018-09-24T20:47:27.266Z,2.30
2018-09-24T20:50:01.229Z,2.40
2018-09-24T20:52:35.119Z,2.50
2018-09-24T20:55:09.334Z,2.40
2018-09-24T20:57:43.544Z,2.43
2018-09-24T21:00:17.434Z,2.57
2018-09-24T21:02:51.524Z,2.60
2018-09-24T21:05:25.400Z,2.37
2018-09-24T21:07:59.348Z,2.40
2018-09-24T21:10:33.107Z,2.20
2018-09-24T21:13:06.951Z,2.50
2018-09-24T21:15:40.689Z,2.57
2018-09-24T21:18:14.595Z,2.37
2018-09-24T21:20:48.400Z,2.30
2018-09-24T21:23:22.486Z,2.13
2018-09-24T21:25:56.350Z,2.17
2018-09-24T21:28:30.241Z,2.30
2018-09-24T21:31:03.933Z,2.30
2018-09-24T21:33:37.829Z,2.37
2018-09-24T21:36:11.902Z,2.30
2018-09-24T21:38:45.718Z,2.40
2018-09-24T21:41:19.471Z,2.60
2018-09-24T21:43:53.257Z,2.43
2018-09-24T21:46:27.366Z,2.50
2018-09-24T21:49:01.107Z,2.97
2018-09-24T21:51:34.959Z,2.60
2018-09-24T21:54:08.828Z,2.40
2018-09-24T21:56:42.637Z,2.47
2018-09-24T21:59:16.520Z,2.60
2018-09-24T22:01:50.360Z,3.07
2018-09-24T22:04:24.419Z,3.27
2018-09-24T22:06:58.402Z,3.40
2018-09-24T22:09:32.229Z,3.37
2018-09-24T22:12:06.040Z,3.60
2018-09-24T22:14:40.052Z,3.40
2018-09-24T22:17:13.904Z,3.10
2018-09-24T22:19:47.884Z,2.90
2018-09-24T22:22:21.850Z,2.70
2018-09-24T22:24:55.813Z,2.60
2018-09-24T22:27:29.800Z,2.50
2018-09-24T22:30:03.885Z,2.77
2018-09-24T22:32:37.903Z,2.67
2018-09-24T22:35:12.840Z,2.80
2018-09-24T22:37:46.810Z,2.50
2018-09-24T22:40:20.779Z,2.60
2018-09-24T22:42:54.779Z,2.53
2018-09-24T22:45:28.739Z,2.20
2018-09-24T22:48:02.503Z,2.30
2018-09-24T22:50:36.581Z,2.40
2018-09-24T22:53:10.459Z,2.30
2018-09-24T22:55:44.414Z,2.17
2018-09-24T22:58:18.366Z,2.33
2018-09-24T23:00:52.344Z,2.20
2018-09-24T23:03:26.392Z,2.03
2018-09-24T23:06:00.367Z,2.60
2018-09-24T23:08:34.530Z,2.57
2018-09-24T23:11:09.115Z,2.30
2018-09-24T23:13:43.115Z,2.00
2018-09-24T23:16:17.258Z,2.00
2018-09-24T23:18:51.047Z,2.00
2018-09-24T23:21:24.864Z,1.87
2018-09-24T23:23:58.867Z,2.10
2018-09-24T23:26:32.839Z,1.70
2018-09-24T23:29:06.688Z,2.20
2018-09-24T23:31:40.575Z,1.97
2018-09-24T23:34:14.536Z,2.10
2018-09-24T23:36:48.205Z,2.03
2018-09-24T23:39:21.999Z,2.07
2018-09-24T23:41:56.200Z,2.10
2018-09-24T23:44:30.150Z,2.20
2018-09-24T23:47:03.991Z,2.03
2018-09-24T23:49:37.717Z,2.20
2018-09-24T23:52:11.795Z,2.30
2018-09-24T23:54:45.756Z,2.30
2018-09-24T23:57:19.501Z,2.20
2018-09-24T23:59:53.229Z,2.03
